sensor_id;sensor_type;location;lat;lon;timestamp;pressure;altitude;pressure_sealevel;temperature;humidity
50977;BME280;36992;48.200;12.418;2022-10-16T00:00:29;96786.72;;;18.79;57.08
50977;BME280;36992;48.200;12.418;2022-10-16T00:02:57;96788.31;;;18.80;56.60
50977;BME280;36992;48.200;12.418;2022-10-16T00:05:24;96787.88;;;18.78;56.78
50977;BME280;36992;48.200;12.418;2022-10-16T00:07:51;96787.06;;;18.77;56.79
50977;BME280;36992;48.200;12.418;2022-10-16T00:10:17;96781.59;;;18.77;56.60
50977;BME280;36992;48.200;12.418;2022-10-16T00:12:44;96783.88;;;18.75;56.77
50977;BME280;36992;48.200;12.418;2022-10-16T00:15:11;96788.53;;;18.74;56.65
50977;BME280;36992;48.200;12.418;2022-10-16T00:17:38;96784.56;;;18.72;56.81
50977;BME280;36992;48.200;12.418;2022-10-16T00:20:07;96791.59;;;18.73;56.46
50977;BME280;36992;48.200;12.418;2022-10-16T00:22:33;96794.59;;;18.68;57.01
50977;BME280;36992;48.200;12.418;2022-10-16T00:25:00;96791.41;;;18.66;56.88
50977;BME280;36992;48.200;12.418;2022-10-16T00:27:27;96795.59;;;18.63;56.62
50977;BME280;36992;48.200;12.418;2022-10-16T00:29:53;96794.03;;;18.62;56.76
50977;BME280;36992;48.200;12.418;2022-10-16T00:32:20;96788.91;;;18.60;56.30
50977;BME280;36992;48.200;12.418;2022-10-16T00:34:46;96808.34;;;18.59;56.37
50977;BME280;36992;48.200;12.418;2022-10-16T00:37:14;96804.47;;;18.60;56.72
50977;BME280;36992;48.200;12.418;2022-10-16T00:39:41;96809.84;;;18.56;56.69
50977;BME280;36992;48.200;12.418;2022-10-16T00:42:09;96795.06;;;18.57;57.16
50977;BME280;36992;48.200;12.418;2022-10-16T00:44:49;96792.00;;;18.59;56.42
50977;BME280;36992;48.200;12.418;2022-10-16T00:47:21;96784.03;;;18.54;56.30
50977;BME280;36992;48.200;12.418;2022-10-16T00:49:50;96796.09;;;18.53;56.62
50977;BME280;36992;48.200;12.418;2022-10-16T00:52:19;96803.47;;;18.52;57.27
50977;BME280;36992;48.200;12.418;2022-10-16T00:54:46;96808.81;;;18.49;56.86
50977;BME280;36992;48.200;12.418;2022-10-16T00:57:15;96810.28;;;18.46;57.23
50977;BME280;36992;48.200;12.418;2022-10-16T00:59:42;96803.56;;;18.43;56.72
50977;BME280;36992;48.200;12.418;2022-10-16T01:02:11;96813.34;;;18.44;56.75
50977;BME280;36992;48.200;12.418;2022-10-16T01:04:42;96815.63;;;18.42;56.49
50977;BME280;36992;48.200;12.418;2022-10-16T01:07:14;96820.28;;;18.42;56.59
50977;BME280;36992;48.200;12.418;2022-10-16T01:09:51;96808.94;;;18.40;56.62
50977;BME280;36992;48.200;12.418;2022-10-16T01:12:24;96803.81;;;18.38;56.79
50977;BME280;36992;48.200;12.418;2022-10-16T01:15:01;96809.25;;;18.38;57.07
50977;BME280;36992;48.200;12.418;2022-10-16T01:17:34;96811.09;;;18.34;57.25
50977;BME280;36992;48.200;12.418;2022-10-16T01:20:09;96811.88;;;18.34;56.89
50977;BME280;36992;48.200;12.418;2022-10-16T01:22:49;96797.00;;;18.32;56.53
50977;BME280;36992;48.200;12.418;2022-10-16T01:25:25;96796.53;;;18.30;56.68
50977;BME280;36992;48.200;12.418;2022-10-16T01:27:59;96798.81;;;18.28;56.79
50977;BME280;36992;48.200;12.418;2022-10-16T01:30:30;96801.88;;;18.26;56.92
50977;BME280;36992;48.200;12.418;2022-10-16T01:33:01;96799.50;;;18.25;56.93
50977;BME280;36992;48.200;12.418;2022-10-16T01:35:32;96798.72;;;18.24;56.63
50977;BME280;36992;48.200;12.418;2022-10-16T01:38:03;96794.72;;;18.22;56.67
50977;BME280;36992;48.200;12.418;2022-10-16T01:40:32;96797.34;;;18.18;57.02
50977;BME280;36992;48.200;12.418;2022-10-16T01:43:04;96798.59;;;18.20;56.62
50977;BME280;36992;48.200;12.418;2022-10-16T01:45:33;96803.13;;;18.16;56.73
50977;BME280;36992;48.200;12.418;2022-10-16T01:48:02;96805.53;;;18.18;56.83
50977;BME280;36992;48.200;12.418;2022-10-16T01:50:33;96804.28;;;18.15;56.98
50977;BME280;36992;48.200;12.418;2022-10-16T01:53:02;96805.41;;;18.14;56.69
50977;BME280;36992;48.200;12.418;2022-10-16T01:55:32;96812.44;;;18.15;57.15
50977;BME280;36992;48.200;12.418;2022-10-16T01:58:03;96816.31;;;18.14;57.00
50977;BME280;36992;48.200;12.418;2022-10-16T02:00:31;96817.78;;;18.12;57.32
50977;BME280;36992;48.200;12.418;2022-10-16T02:03:00;96824.34;;;18.11;56.97
50977;BME280;36992;48.200;12.418;2022-10-16T02:05:31;96823.91;;;18.09;56.64
50977;BME280;36992;48.200;12.418;2022-10-16T02:07:58;96820.22;;;18.04;56.91
50977;BME280;36992;48.200;12.418;2022-10-16T02:10:25;96821.25;;;18.00;56.79
50977;BME280;36992;48.200;12.418;2022-10-16T02:12:59;96822.06;;;18.00;56.81
50977;BME280;36992;48.200;12.418;2022-10-16T02:15:28;96832.47;;;17.98;57.19
50977;BME280;36992;48.200;12.418;2022-10-16T02:17:54;96832.34;;;17.94;57.13
50977;BME280;36992;48.200;12.418;2022-10-16T02:20:25;96828.97;;;17.98;56.78
50977;BME280;36992;48.200;12.418;2022-10-16T02:22:54;96824.53;;;17.93;57.21
50977;BME280;36992;48.200;12.418;2022-10-16T02:25:25;96824.19;;;17.94;56.62
50977;BME280;36992;48.200;12.418;2022-10-16T02:27:56;96830.78;;;17.93;56.97
50977;BME280;36992;48.200;12.418;2022-10-16T02:30:27;96827.59;;;17.91;56.82
50977;BME280;36992;48.200;12.418;2022-10-16T02:32:58;96835.78;;;17.91;57.10
50977;BME280;36992;48.200;12.418;2022-10-16T02:35:27;96840.28;;;17.87;56.99
50977;BME280;36992;48.200;12.418;2022-10-16T02:37:55;96830.09;;;17.84;57.31
50977;BME280;36992;48.200;12.418;2022-10-16T02:40:22;96837.78;;;17.82;57.26
50977;BME280;36992;48.200;12.418;2022-10-16T02:42:51;96839.41;;;17.83;57.16
50977;BME280;36992;48.200;12.418;2022-10-16T02:45:18;96837.78;;;17.82;57.46
50977;BME280;36992;48.200;12.418;2022-10-16T02:47:45;96838.13;;;17.80;57.52
50977;BME280;36992;48.200;12.418;2022-10-16T02:50:13;96838.59;;;17.83;57.53
50977;BME280;36992;48.200;12.418;2022-10-16T02:52:40;96843.59;;;17.80;57.34
50977;BME280;36992;48.200;12.418;2022-10-16T02:55:07;96849.38;;;17.79;57.12
50977;BME280;36992;48.200;12.418;2022-10-16T02:57:34;96841.50;;;17.77;56.94
50977;BME280;36992;48.200;12.418;2022-10-16T03:00:02;96844.25;;;17.77;57.28
50977;BME280;36992;48.200;12.418;2022-10-16T03:02:29;96841.84;;;17.76;57.23
50977;BME280;36992;48.200;12.418;2022-10-16T03:04:56;96849.25;;;17.75;57.17
50977;BME280;36992;48.200;12.418;2022-10-16T03:07:24;96857.09;;;17.77;57.11
50977;BME280;36992;48.200;12.418;2022-10-16T03:09:50;96852.28;;;17.74;56.80
50977;BME280;36992;48.200;12.418;2022-10-16T03:12:17;96857.75;;;17.74;56.96
50977;BME280;36992;48.200;12.418;2022-10-16T03:14:44;96849.91;;;17.72;56.68
50977;BME280;36992;48.200;12.418;2022-10-16T03:17:10;96839.81;;;17.73;56.81
50977;BME280;36992;48.200;12.418;2022-10-16T03:19:38;96833.09;;;17.70;57.02
50977;BME280;36992;48.200;12.418;2022-10-16T03:22:04;96839.34;;;17.71;56.62
50977;BME280;36992;48.200;12.418;2022-10-16T03:24:32;96833.91;;;17.71;56.43
50977;BME280;36992;48.200;12.418;2022-10-16T03:26:59;96833.44;;;17.69;56.07
50977;BME280;36992;48.200;12.418;2022-10-16T03:29:25;96839.56;;;17.65;55.70
50977;BME280;36992;48.200;12.418;2022-10-16T03:31:54;96845.66;;;17.62;56.06
50977;BME280;36992;48.200;12.418;2022-10-16T03:34:21;96843.16;;;17.57;56.46
50977;BME280;36992;48.200;12.418;2022-10-16T03:36:48;96844.47;;;17.51;56.76
50977;BME280;36992;48.200;12.418;2022-10-16T03:39:14;96837.00;;;17.48;56.56
50977;BME280;36992;48.200;12.418;2022-10-16T03:41:42;96844.34;;;17.47;56.53
50977;BME280;36992;48.200;12.418;2022-10-16T03:44:09;96845.38;;;17.43;55.80
50977;BME280;36992;48.200;12.418;2022-10-16T03:46:36;96840.59;;;17.39;56.31
50977;BME280;36992;48.200;12.418;2022-10-16T03:49:02;96846.38;;;17.38;56.49
50977;BME280;36992;48.200;12.418;2022-10-16T03:51:29;96852.47;;;17.35;56.28
50977;BME280;36992;48.200;12.418;2022-10-16T03:53:55;96857.47;;;17.33;56.44
50977;BME280;36992;48.200;12.418;2022-10-16T03:56:22;96855.41;;;17.30;56.57
50977;BME280;36992;48.200;12.418;2022-10-16T03:58:50;96850.75;;;17.30;56.27
50977;BME280;36992;48.200;12.418;2022-10-16T04:01:16;96854.16;;;17.27;56.26
50977;BME280;36992;48.200;12.418;2022-10-16T04:03:43;96856.75;;;17.23;56.00
50977;BME280;36992;48.200;12.418;2022-10-16T04:06:10;96864.44;;;17.21;56.58
50977;BME280;36992;48.200;12.418;2022-10-16T04:08:36;96870.56;;;17.18;56.33
50977;BME280;36992;48.200;12.418;2022-10-16T04:11:04;96864.97;;;17.15;56.54
50977;BME280;36992;48.200;12.418;2022-10-16T04:13:31;96868.03;;;17.13;56.92
50977;BME280;36992;48.200;12.418;2022-10-16T04:15:59;96864.50;;;17.12;56.58
50977;BME280;36992;48.200;12.418;2022-10-16T04:18:26;96867.91;;;17.09;56.34
50977;BME280;36992;48.200;12.418;2022-10-16T04:20:53;96865.50;;;17.08;56.79
50977;BME280;36992;48.200;12.418;2022-10-16T04:23:19;96869.34;;;17.07;56.90
50977;BME280;36992;48.200;12.418;2022-10-16T04:25:48;96867.75;;;17.06;56.13
50977;BME280;36992;48.200;12.418;2022-10-16T04:28:14;96873.97;;;17.06;56.46
50977;BME280;36992;48.200;12.418;2022-10-16T04:30:41;96874.34;;;17.05;56.36
50977;BME280;36992;48.200;12.418;2022-10-16T04:33:09;96886.47;;;17.07;56.28
50977;BME280;36992;48.200;12.418;2022-10-16T04:35:36;96896.72;;;17.02;56.57
50977;BME280;36992;48.200;12.418;2022-10-16T04:38:03;96894.31;;;17.00;56.40
50977;BME280;36992;48.200;12.418;2022-10-16T04:40:29;96891.16;;;16.98;56.64
50977;BME280;36992;48.200;12.418;2022-10-16T04:42:58;96893.06;;;16.97;56.64
50977;BME280;36992;48.200;12.418;2022-10-16T04:45:24;96890.69;;;16.96;56.63
50977;BME280;36992;48.200;12.418;2022-10-16T04:47:51;96885.25;;;16.96;56.72
50977;BME280;36992;48.200;12.418;2022-10-16T04:50:19;96887.47;;;16.94;56.41
50977;BME280;36992;48.200;12.418;2022-10-16T04:52:46;96883.97;;;16.93;56.56
50977;BME280;36992;48.200;12.418;2022-10-16T04:55:12;96888.94;;;16.91;56.87
50977;BME280;36992;48.200;12.418;2022-10-16T04:57:40;96888.16;;;16.91;56.67
50977;BME280;36992;48.200;12.418;2022-10-16T05:00:07;96876.78;;;16.89;57.55
50977;BME280;36992;48.200;12.418;2022-10-16T05:02:34;96888.78;;;16.88;57.34
50977;BME280;36992;48.200;12.418;2022-10-16T05:05:01;96887.22;;;16.86;56.96
50977;BME280;36992;48.200;12.418;2022-10-16T05:07:29;96900.50;;;16.88;57.08
50977;BME280;36992;48.200;12.418;2022-10-16T05:09:56;96885.63;;;16.85;56.99
50977;BME280;36992;48.200;12.418;2022-10-16T05:12:23;96884.81;;;16.85;57.11
50977;BME280;36992;48.200;12.418;2022-10-16T05:14:49;96878.59;;;16.84;57.64
50977;BME280;36992;48.200;12.418;2022-10-16T05:17:16;96881.75;;;16.86;57.21
50977;BME280;36992;48.200;12.418;2022-10-16T05:19:43;96889.94;;;16.86;57.62
50977;BME280;36992;48.200;12.418;2022-10-16T05:22:09;96872.47;;;16.88;57.15
50977;BME280;36992;48.200;12.418;2022-10-16T05:24:37;96876.47;;;16.90;57.39
50977;BME280;36992;48.200;12.418;2022-10-16T05:27:04;96876.78;;;16.89;57.60
50977;BME280;36992;48.200;12.418;2022-10-16T05:29:30;96870.25;;;16.90;57.55
50977;BME280;36992;48.200;12.418;2022-10-16T05:31:57;96864.00;;;16.89;57.40
50977;BME280;36992;48.200;12.418;2022-10-16T05:34:24;96869.44;;;16.89;57.71
50977;BME280;36992;48.200;12.418;2022-10-16T05:36:50;96874.06;;;16.89;57.64
50977;BME280;36992;48.200;12.418;2022-10-16T05:39:17;96867.03;;;16.88;57.54
50977;BME280;36992;48.200;12.418;2022-10-16T05:41:45;96879.50;;;16.89;57.64
50977;BME280;36992;48.200;12.418;2022-10-16T05:44:12;96879.03;;;16.86;57.31
50977;BME280;36992;48.200;12.418;2022-10-16T05:46:38;96874.72;;;16.85;57.51
50977;BME280;36992;48.200;12.418;2022-10-16T05:49:05;96873.59;;;16.86;57.27
50977;BME280;36992;48.200;12.418;2022-10-16T05:51:32;96872.47;;;16.88;57.65
50977;BME280;36992;48.200;12.418;2022-10-16T05:53:58;96884.16;;;16.88;57.65
50977;BME280;36992;48.200;12.418;2022-10-16T05:56:25;96888.78;;;16.88;57.80
50977;BME280;36992;48.200;12.418;2022-10-16T05:58:53;96897.91;;;16.92;57.22
50977;BME280;36992;48.200;12.418;2022-10-16T06:01:20;96892.00;;;16.90;57.45
50977;BME280;36992;48.200;12.418;2022-10-16T06:03:49;96899.03;;;16.91;57.91
50977;BME280;36992;48.200;12.418;2022-10-16T06:06:18;96898.22;;;16.90;57.75
50977;BME280;36992;48.200;12.418;2022-10-16T06:08:46;96900.63;;;16.92;57.98
50977;BME280;36992;48.200;12.418;2022-10-16T06:11:15;96898.38;;;16.94;57.66
50977;BME280;36992;48.200;12.418;2022-10-16T06:13:42;96906.88;;;16.92;58.30
50977;BME280;36992;48.200;12.418;2022-10-16T06:16:13;96903.47;;;16.95;58.25
50977;BME280;36992;48.200;12.418;2022-10-16T06:18:39;96907.00;;;16.96;57.92
50977;BME280;36992;48.200;12.418;2022-10-16T06:21:11;96913.38;;;17.00;57.94
50977;BME280;36992;48.200;12.418;2022-10-16T06:23:37;96914.81;;;16.97;58.02
50977;BME280;36992;48.200;12.418;2022-10-16T06:26:05;96916.44;;;16.98;57.96
50977;BME280;36992;48.200;12.418;2022-10-16T06:28:32;96922.66;;;16.99;58.12
50977;BME280;36992;48.200;12.418;2022-10-16T06:30:59;96920.41;;;17.01;58.14
50977;BME280;36992;48.200;12.418;2022-10-16T06:33:27;96920.59;;;17.05;58.12
50977;BME280;36992;48.200;12.418;2022-10-16T06:35:53;96918.19;;;17.03;58.60
50977;BME280;36992;48.200;12.418;2022-10-16T06:38:20;96926.81;;;17.05;58.13
50977;BME280;36992;48.200;12.418;2022-10-16T06:40:47;96928.41;;;17.06;58.07
50977;BME280;36992;48.200;12.418;2022-10-16T06:43:13;96935.44;;;17.07;57.97
50977;BME280;36992;48.200;12.418;2022-10-16T06:45:40;96935.44;;;17.07;58.01
50977;BME280;36992;48.200;12.418;2022-10-16T06:48:07;96934.34;;;17.08;58.26
50977;BME280;36992;48.200;12.418;2022-10-16T06:50:35;96946.50;;;17.11;58.01
50977;BME280;36992;48.200;12.418;2022-10-16T06:53:02;96943.28;;;17.09;58.05
50977;BME280;36992;48.200;12.418;2022-10-16T06:55:29;96953.03;;;17.10;57.60
50977;BME280;36992;48.200;12.418;2022-10-16T06:57:55;96962.03;;;17.10;57.86
50977;BME280;36992;48.200;12.418;2022-10-16T07:00:22;96969.38;;;17.10;57.55
50977;BME280;36992;48.200;12.418;2022-10-16T07:02:49;96974.81;;;17.10;58.08
50977;BME280;36992;48.200;12.418;2022-10-16T07:05:16;96980.25;;;17.10;57.78
50977;BME280;36992;48.200;12.418;2022-10-16T07:07:44;96975.63;;;17.10;57.86
50977;BME280;36992;48.200;12.418;2022-10-16T07:10:11;96970.50;;;17.09;57.67
50977;BME280;36992;48.200;12.418;2022-10-16T07:12:37;96964.28;;;17.08;57.96
50977;BME280;36992;48.200;12.418;2022-10-16T07:15:05;96965.88;;;17.09;57.70
50977;BME280;36992;48.200;12.418;2022-10-16T07:17:32;96965.56;;;17.11;58.06
50977;BME280;36992;48.200;12.418;2022-10-16T07:19:59;96967.13;;;17.12;57.94
50977;BME280;36992;48.200;12.418;2022-10-16T07:22:28;96970.00;;;17.16;58.35
50977;BME280;36992;48.200;12.418;2022-10-16T07:24:56;96970.00;;;17.16;58.13
50977;BME280;36992;48.200;12.418;2022-10-16T07:27:22;96980.06;;;17.15;58.85
50977;BME280;36992;48.200;12.418;2022-10-16T07:29:49;96979.28;;;17.15;58.14
50977;BME280;36992;48.200;12.418;2022-10-16T07:32:16;96976.56;;;17.15;58.27
50977;BME280;36992;48.200;12.418;2022-10-16T07:34:42;96980.06;;;17.15;58.27
50977;BME280;36992;48.200;12.418;2022-10-16T07:37:09;96986.31;;;17.16;58.17
50977;BME280;36992;48.200;12.418;2022-10-16T07:39:36;96989.06;;;17.16;57.91
50977;BME280;36992;48.200;12.418;2022-10-16T07:42:04;96986.78;;;17.18;58.34
50977;BME280;36992;48.200;12.418;2022-10-16T07:44:30;96994.50;;;17.16;58.14
50977;BME280;36992;48.200;12.418;2022-10-16T07:46:57;96996.09;;;17.17;58.76
50977;BME280;36992;48.200;12.418;2022-10-16T07:49:24;97005.84;;;17.18;58.43
50977;BME280;36992;48.200;12.418;2022-10-16T07:51:50;97017.19;;;17.20;59.27
50977;BME280;36992;48.200;12.418;2022-10-16T07:54:17;97013.38;;;17.21;58.63
50977;BME280;36992;48.200;12.418;2022-10-16T07:56:44;97011.91;;;17.23;59.44
50977;BME280;36992;48.200;12.418;2022-10-16T07:59:12;97007.06;;;17.29;58.74
50977;BME280;36992;48.200;12.418;2022-10-16T08:01:38;97003.53;;;17.29;59.42
50977;BME280;36992;48.200;12.418;2022-10-16T08:04:09;97005.28;;;17.33;58.97
50977;BME280;36992;48.200;12.418;2022-10-16T08:06:36;97008.47;;;17.35;59.52
50977;BME280;36992;48.200;12.418;2022-10-16T08:09:04;97009.75;;;17.38;58.83
50977;BME280;36992;48.200;12.418;2022-10-16T08:11:30;97009.88;;;17.42;59.86
50977;BME280;36992;48.200;12.418;2022-10-16T08:13:57;97007.63;;;17.44;60.30
50977;BME280;36992;48.200;12.418;2022-10-16T08:16:25;97007.09;;;17.50;60.02
50977;BME280;36992;48.200;12.418;2022-10-16T08:18:52;97013.34;;;17.51;60.15
50977;BME280;36992;48.200;12.418;2022-10-16T08:21:20;97021.31;;;17.56;59.87
50977;BME280;36992;48.200;12.418;2022-10-16T08:23:48;97021.31;;;17.56;60.36
50977;BME280;36992;48.200;12.418;2022-10-16T08:26:15;97024.53;;;17.58;59.75
50977;BME280;36992;48.200;12.418;2022-10-16T08:28:42;97033.94;;;17.61;60.70
50977;BME280;36992;48.200;12.418;2022-10-16T08:31:10;97033.28;;;17.64;60.32
50977;BME280;36992;48.200;12.418;2022-10-16T08:33:40;97044.31;;;17.67;60.67
50977;BME280;36992;48.200;12.418;2022-10-16T08:36:09;97039.31;;;17.70;60.45
50977;BME280;36992;48.200;12.418;2022-10-16T08:38:36;97048.44;;;17.74;60.16
50977;BME280;36992;48.200;12.418;2022-10-16T08:41:20;97043.75;;;17.83;59.65
50977;BME280;36992;48.200;12.418;2022-10-16T08:44:14;97042.88;;;17.91;59.87
50977;BME280;36992;48.200;12.418;2022-10-16T08:46:48;97046.06;;;17.93;60.07
50977;BME280;36992;48.200;12.418;2022-10-16T08:49:21;97054.72;;;17.96;60.25
50977;BME280;36992;48.200;12.418;2022-10-16T08:51:50;97058.34;;;18.00;59.81
50977;BME280;36992;48.200;12.418;2022-10-16T08:54:29;97050.94;;;18.09;59.61
50977;BME280;36992;48.200;12.418;2022-10-16T08:57:07;97060.03;;;18.13;59.74
50977;BME280;36992;48.200;12.418;2022-10-16T08:59:35;97064.72;;;18.13;60.21
50977;BME280;36992;48.200;12.418;2022-10-16T09:02:18;97061.91;;;18.22;59.92
50977;BME280;36992;48.200;12.418;2022-10-16T09:04:58;97061.72;;;18.27;59.52
50977;BME280;36992;48.200;12.418;2022-10-16T09:07:31;97064.56;;;18.30;59.23
50977;BME280;36992;48.200;12.418;2022-10-16T09:10:13;97060.16;;;18.38;59.39
50977;BME280;36992;48.200;12.418;2022-10-16T09:12:48;97054.81;;;18.42;59.06
50977;BME280;36992;48.200;12.418;2022-10-16T09:15:27;97052.69;;;18.47;58.93
50977;BME280;36992;48.200;12.418;2022-10-16T09:18:00;97052.50;;;18.53;59.42
50977;BME280;36992;48.200;12.418;2022-10-16T09:20:42;97049.69;;;18.62;59.08
50977;BME280;36992;48.200;12.418;2022-10-16T09:23:16;97052.53;;;18.65;59.64
50977;BME280;36992;48.200;12.418;2022-10-16T09:25:46;97064.34;;;18.69;59.79
50977;BME280;36992;48.200;12.418;2022-10-16T09:28:14;97062.53;;;18.73;60.04
50977;BME280;36992;48.200;12.418;2022-10-16T09:30:41;97066.66;;;18.80;59.33
50977;BME280;36992;48.200;12.418;2022-10-16T09:33:09;97065.31;;;18.86;60.11
50977;BME280;36992;48.200;12.418;2022-10-16T09:35:39;97064.41;;;18.94;59.86
50977;BME280;36992;48.200;12.418;2022-10-16T09:38:07;97066.13;;;18.99;59.33
50977;BME280;36992;48.200;12.418;2022-10-16T09:40:36;97073.44;;;19.07;58.90
50977;BME280;36992;48.200;12.418;2022-10-16T09:43:13;97077.66;;;19.17;58.99
50977;BME280;36992;48.200;12.418;2022-10-16T09:45:53;97074.03;;;19.25;58.75
50977;BME280;36992;48.200;12.418;2022-10-16T09:48:20;97078.00;;;19.28;59.01
50977;BME280;36992;48.200;12.418;2022-10-16T09:50:57;97079.16;;;19.39;58.51
50977;BME280;36992;48.200;12.418;2022-10-16T09:53:23;97077.34;;;19.44;59.65
50977;BME280;36992;48.200;12.418;2022-10-16T09:55:53;97079.47;;;19.50;59.40
50977;BME280;36992;48.200;12.418;2022-10-16T09:58:22;97086.09;;;19.62;58.97
50977;BME280;36992;48.200;12.418;2022-10-16T10:00:49;97083.94;;;19.67;58.88
50977;BME280;36992;48.200;12.418;2022-10-16T10:03:32;97070.25;;;19.80;58.28
50977;BME280;36992;48.200;12.418;2022-10-16T10:06:06;97071.25;;;19.88;58.03
50977;BME280;36992;48.200;12.418;2022-10-16T10:08:33;97067.84;;;19.91;57.86
50977;BME280;36992;48.200;12.418;2022-10-16T10:11:00;97058.28;;;19.97;58.12
50977;BME280;36992;48.200;12.418;2022-10-16T10:13:26;97062.38;;;20.03;57.89
50977;BME280;36992;48.200;12.418;2022-10-16T10:15:53;97063.34;;;20.11;58.37
50977;BME280;36992;48.200;12.418;2022-10-16T10:18:21;97065.84;;;20.16;58.01
50977;BME280;36992;48.200;12.418;2022-10-16T10:20:57;97064.56;;;20.26;57.92
50977;BME280;36992;48.200;12.418;2022-10-16T10:23:26;97069.44;;;20.33;57.25
50977;BME280;36992;48.200;12.418;2022-10-16T10:25:56;97060.19;;;20.38;57.35
50977;BME280;36992;48.200;12.418;2022-10-16T10:28:47;97059.25;;;20.46;57.49
50977;BME280;36992;48.200;12.418;2022-10-16T10:31:24;97058.22;;;20.51;57.36
50977;BME280;36992;48.200;12.418;2022-10-16T10:33:58;97051.69;;;20.55;57.41
50977;BME280;36992;48.200;12.418;2022-10-16T10:36:29;97048.63;;;20.73;57.29
50977;BME280;36992;48.200;12.418;2022-10-16T10:39:00;97054.78;;;20.70;56.81
50977;BME280;36992;48.200;12.418;2022-10-16T10:41:52;97057.28;;;20.75;57.41
50977;BME280;36992;48.200;12.418;2022-10-16T10:44:30;97054.19;;;20.76;57.49
50977;BME280;36992;48.200;12.418;2022-10-16T10:47:08;97061.34;;;20.81;57.40
50977;BME280;36992;48.200;12.418;2022-10-16T10:49:52;97058.81;;;20.88;57.03
50977;BME280;36992;48.200;12.418;2022-10-16T10:52:34;97065.63;;;20.95;57.06
50977;BME280;36992;48.200;12.418;2022-10-16T10:55:12;97059.88;;;21.00;56.90
50977;BME280;36992;48.200;12.418;2022-10-16T10:57:49;97065.53;;;21.07;56.60
50977;BME280;36992;48.200;12.418;2022-10-16T11:00:21;97060.97;;;21.11;56.69
50977;BME280;36992;48.200;12.418;2022-10-16T11:03:00;97057.25;;;21.20;56.83
50977;BME280;36992;48.200;12.418;2022-10-16T11:05:41;97060.19;;;21.27;56.95
50977;BME280;36992;48.200;12.418;2022-10-16T11:08:13;97056.78;;;21.34;56.88
50977;BME280;36992;48.200;12.418;2022-10-16T11:10:48;97059.78;;;21.45;56.78
50977;BME280;36992;48.200;12.418;2022-10-16T11:13:23;97049.09;;;21.55;55.96
50977;BME280;36992;48.200;12.418;2022-10-16T11:15:57;97058.72;;;21.65;56.48
50977;BME280;36992;48.200;12.418;2022-10-16T11:18:27;97058.97;;;21.76;55.92
50977;BME280;36992;48.200;12.418;2022-10-16T11:21:00;97055.28;;;21.88;55.76
50977;BME280;36992;48.200;12.418;2022-10-16T11:23:31;97053.50;;;21.96;55.19
50977;BME280;36992;48.200;12.418;2022-10-16T11:26:04;97048.25;;;22.07;54.89
50977;BME280;36992;48.200;12.418;2022-10-16T11:28:38;97048.84;;;22.16;55.49
50977;BME280;36992;48.200;12.418;2022-10-16T11:31:11;97044.31;;;22.24;54.74
50977;BME280;36992;48.200;12.418;2022-10-16T11:33:43;97047.97;;;22.32;55.37
50977;BME280;36992;48.200;12.418;2022-10-16T11:36:15;97040.66;;;22.40;54.80
50977;BME280;36992;48.200;12.418;2022-10-16T11:38:49;97051.44;;;22.48;54.79
50977;BME280;36992;48.200;12.418;2022-10-16T11:41:24;97049.66;;;22.56;54.37
50977;BME280;36992;48.200;12.418;2022-10-16T11:44:03;97047.81;;;22.64;53.78
50977;BME280;36992;48.200;12.418;2022-10-16T11:46:34;97046.72;;;22.69;53.99
50977;BME280;36992;48.200;12.418;2022-10-16T11:49:08;97041.00;;;22.77;53.80
50977;BME280;36992;48.200;12.418;2022-10-16T11:51:39;97037.53;;;22.81;52.84
50977;BME280;36992;48.200;12.418;2022-10-16T11:54:16;97043.13;;;22.88;53.17
50977;BME280;36992;48.200;12.418;2022-10-16T11:56:50;97044.78;;;22.93;53.03
50977;BME280;36992;48.200;12.418;2022-10-16T11:59:26;97038.22;;;22.97;52.71
50977;BME280;36992;48.200;12.418;2022-10-16T12:02:00;97039.84;;;23.02;52.67
50977;BME280;36992;48.200;12.418;2022-10-16T12:04:41;97039.97;;;23.09;52.57
50977;BME280;36992;48.200;12.418;2022-10-16T12:07:13;97033.34;;;23.14;51.82
50977;BME280;36992;48.200;12.418;2022-10-16T12:09:41;97033.81;;;23.16;51.23
50977;BME280;36992;48.200;12.418;2022-10-16T12:12:25;97039.09;;;23.28;52.46
50977;BME280;36992;48.200;12.418;2022-10-16T12:15:00;97036.44;;;23.32;52.68
50977;BME280;36992;48.200;12.418;2022-10-16T12:17:33;97033.53;;;23.48;52.79
50977;BME280;36992;48.200;12.418;2022-10-16T12:20:19;97034.69;;;23.47;52.02
50977;BME280;36992;48.200;12.418;2022-10-16T12:22:49;97046.47;;;23.48;51.42
50977;BME280;36992;48.200;12.418;2022-10-16T12:25:21;97046.09;;;23.49;50.39
50977;BME280;36992;48.200;12.418;2022-10-16T12:27:59;97038.31;;;23.55;51.09
50977;BME280;36992;48.200;12.418;2022-10-16T12:30:28;97042.28;;;23.57;50.91
50977;BME280;36992;48.200;12.418;2022-10-16T12:32:56;97048.22;;;23.60;50.83
50977;BME280;36992;48.200;12.418;2022-10-16T12:35:26;97042.03;;;23.66;50.79
50977;BME280;36992;48.200;12.418;2022-10-16T12:37:54;97043.25;;;23.69;50.21
50977;BME280;36992;48.200;12.418;2022-10-16T12:40:32;97042.56;;;23.76;50.67
50977;BME280;36992;48.200;12.418;2022-10-16T12:43:26;97039.53;;;23.84;51.29
50977;BME280;36992;48.200;12.418;2022-10-16T12:46:01;97041.13;;;23.85;50.54
50977;BME280;36992;48.200;12.418;2022-10-16T12:48:29;97045.03;;;23.84;50.00
50977;BME280;36992;48.200;12.418;2022-10-16T12:50:56;97042.72;;;23.87;49.85
50977;BME280;36992;48.200;12.418;2022-10-16T12:53:24;97040.00;;;23.90;50.27
50977;BME280;36992;48.200;12.418;2022-10-16T12:56:01;97039.31;;;23.97;50.26
50977;BME280;36992;48.200;12.418;2022-10-16T12:58:49;97044.47;;;24.02;50.33
50977;BME280;36992;48.200;12.418;2022-10-16T13:01:37;97038.97;;;24.02;50.13
50977;BME280;36992;48.200;12.418;2022-10-16T13:04:40;97048.13;;;24.10;50.71